createdAt,value
2023-11-24T00:02:52.395Z,7.33
2023-11-24T00:07:55.878Z,7.33
2023-11-24T00:12:58.192Z,7.12
2023-11-24T00:18:00.645Z,6.93
2023-11-24T00:23:04.179Z,7.03
2023-11-24T00:28:06.325Z,6.91
2023-11-24T00:33:08.568Z,6.88
2023-11-24T00:38:12.072Z,6.98
2023-11-24T00:43:14.268Z,7.09
2023-11-24T00:48:16.384Z,6.96
2023-11-24T00:53:19.612Z,6.84
2023-11-24T00:58:21.718Z,6.72
2023-11-24T01:03:24.452Z,6.71
2023-11-24T01:08:27.930Z,6.59
2023-11-24T01:13:30.130Z,6.56
2023-11-24T01:18:32.720Z,6.36
2023-11-24T01:23:36.312Z,6.48
2023-11-24T01:28:38.463Z,6.46
2023-11-24T01:33:40.668Z,6.59
2023-11-24T01:38:44.479Z,6.58
2023-11-24T01:43:57.880Z,6.42
2023-11-24T01:49:00.413Z,6.34
2023-11-24T01:54:05.226Z,6.57
2023-11-24T01:59:08.051Z,6.66
2023-11-24T02:04:10.353Z,6.74
2023-11-24T02:09:13.858Z,6.55
2023-11-24T02:14:15.893Z,6.45
2023-11-24T02:19:18.079Z,6.33
2023-11-24T02:24:21.670Z,6.23
2023-11-24T02:29:23.797Z,6.02
2023-11-24T02:34:26.073Z,5.90
2023-11-24T02:39:29.834Z,5.77
2023-11-24T02:44:32.104Z,5.77
2023-11-24T02:49:34.372Z,5.64
2023-11-24T02:54:38.133Z,5.63
2023-11-24T02:59:40.172Z,5.60
2023-11-24T03:04:42.394Z,5.67
2023-11-24T03:09:45.984Z,5.61
2023-11-24T03:14:48.126Z,5.51
2023-11-24T03:19:51.813Z,5.48
2023-11-24T03:24:55.508Z,5.55
2023-11-24T03:29:58.029Z,5.52
2023-11-24T03:35:00.146Z,5.44
2023-11-24T03:40:03.899Z,5.30
2023-11-24T03:50:10.394Z,5.32
2023-11-24T03:55:14.077Z,5.37
2023-11-24T04:00:17.040Z,5.40
2023-11-24T04:05:19.021Z,5.34
2023-11-24T04:10:23.875Z,5.30
2023-11-24T04:15:26.130Z,5.31
2023-11-24T04:20:28.476Z,5.29
2023-11-24T04:25:31.578Z,5.24
2023-11-24T04:30:33.434Z,5.23
2023-11-24T04:35:35.873Z,5.15
2023-11-24T04:40:39.386Z,5.18
2023-11-24T04:45:41.743Z,5.11
2023-11-24T04:50:43.999Z,5.11
2023-11-24T04:55:47.514Z,5.06
2023-11-24T05:00:49.408Z,5.00
2023-11-24T05:05:51.849Z,4.79
2023-11-24T05:10:55.103Z,4.72
2023-11-24T05:15:57.317Z,4.75
2023-11-24T05:20:59.479Z,4.54
2023-11-24T05:26:03.130Z,4.61
2023-11-24T05:31:05.014Z,4.55
2023-11-24T05:36:08.656Z,4.51
2023-11-24T05:41:12.216Z,4.36
2023-11-24T05:46:14.345Z,4.46
2023-11-24T05:51:16.621Z,4.51
2023-11-24T05:56:20.724Z,4.60
2023-11-24T06:01:22.899Z,4.60
2023-11-24T06:06:25.267Z,4.56
2023-11-24T06:11:28.761Z,4.72
2023-11-24T06:16:30.771Z,4.67
2023-11-24T06:21:33.149Z,4.62
2023-11-24T06:26:36.571Z,4.57
2023-11-24T06:31:38.656Z,4.45
2023-11-24T06:36:40.915Z,4.32
2023-11-24T06:41:44.639Z,4.35
2023-11-24T06:46:46.800Z,4.25
2023-11-24T06:51:49.214Z,4.49
2023-11-24T06:56:52.765Z,4.54
2023-11-24T07:01:55.138Z,4.42
2023-11-24T07:06:57.375Z,4.45
2023-11-24T07:12:00.571Z,4.38
2023-11-24T07:17:02.554Z,4.46
2023-11-24T07:22:05.630Z,4.62
2023-11-24T07:27:09.132Z,4.59
2023-11-24T07:32:11.405Z,4.57
2023-11-24T07:37:13.667Z,4.52
2023-11-24T07:42:16.934Z,4.35
2023-11-24T07:47:18.659Z,4.23
2023-11-24T07:52:20.938Z,4.16
2023-11-24T07:57:24.516Z,4.38
2023-11-24T08:02:26.737Z,4.40
2023-11-24T08:07:28.865Z,4.42
2023-11-24T08:12:32.121Z,4.37
2023-11-24T08:17:34.363Z,4.31
2023-11-24T08:22:36.803Z,4.37
2023-11-24T08:27:40.604Z,4.67
2023-11-24T08:32:45.749Z,4.63
2023-11-24T08:37:48.461Z,4.65
2023-11-24T08:42:52.441Z,4.77
2023-11-24T08:47:54.467Z,4.97
2023-11-24T08:52:56.220Z,4.92
2023-11-24T08:57:59.768Z,4.75
2023-11-24T09:03:02.310Z,4.94
2023-11-24T09:08:04.851Z,5.01
2023-11-24T09:13:08.300Z,5.37
2023-11-24T09:18:11.016Z,5.53
2023-11-24T09:23:13.448Z,5.17
2023-11-24T09:28:17.041Z,5.07
2023-11-24T09:33:19.182Z,5.58
2023-11-24T09:38:21.314Z,5.24
2023-11-24T09:43:25.741Z,5.59
2023-11-24T09:48:27.817Z,5.31
2023-11-24T09:53:31.620Z,5.56
2023-11-24T09:58:35.691Z,5.67
2023-11-24T10:03:40.200Z,5.50
2023-11-24T10:08:42.706Z,5.98
2023-11-24T10:13:50.000Z,6.66
2023-11-24T10:18:53.358Z,7.23
2023-11-24T10:23:55.684Z,7.12
2023-11-24T10:28:59.239Z,6.26
2023-11-24T10:34:01.577Z,6.87
2023-11-24T10:39:06.745Z,6.76
2023-11-24T10:44:12.275Z,6.65
2023-11-24T10:49:21.532Z,7.04
2023-11-24T10:54:25.590Z,7.07
2023-11-24T10:59:31.427Z,7.84
2023-11-24T11:04:35.091Z,7.21
2023-11-24T11:09:37.631Z,6.26
2023-11-24T11:14:41.699Z,5.91
2023-11-24T11:19:57.810Z,5.88
2023-11-24T11:25:37.160Z,6.63
2023-11-24T11:30:43.350Z,6.56
2023-11-24T11:35:46.025Z,6.20
2023-11-24T11:40:50.534Z,5.58
2023-11-24T11:45:53.918Z,5.67
2023-11-24T11:50:57.395Z,5.92
2023-11-24T11:56:02.107Z,5.88
2023-11-24T12:01:06.713Z,6.02
2023-11-24T12:06:09.119Z,6.21
2023-11-24T12:11:11.639Z,6.45
2023-11-24T12:16:14.981Z,7.05
2023-11-24T12:21:17.478Z,6.65
2023-11-24T12:26:19.528Z,6.50
2023-11-24T12:31:28.097Z,6.30
2023-11-24T12:36:30.045Z,6.46
2023-11-24T12:41:32.945Z,6.52
2023-11-24T12:46:36.562Z,6.98
2023-11-24T12:51:40.463Z,6.58
2023-11-24T12:56:42.580Z,6.16
2023-11-24T13:01:46.195Z,6.07
2023-11-24T13:06:48.394Z,6.02
2023-11-24T13:11:50.662Z,5.96
2023-11-24T13:16:54.554Z,5.80
2023-11-24T13:21:56.917Z,5.89
2023-11-24T13:26:59.016Z,5.51
2023-11-24T13:32:03.402Z,5.42
2023-11-24T13:37:05.921Z,5.27
2023-11-24T13:42:08.027Z,4.77
2023-11-24T13:47:11.552Z,4.89
2023-11-24T13:52:14.039Z,4.86
2023-11-24T13:57:16.318Z,4.83
2023-11-24T14:02:20.118Z,4.80
2023-11-24T14:07:22.756Z,4.88
2023-11-24T14:12:24.854Z,4.94
2023-11-24T14:17:28.545Z,4.92
2023-11-24T14:22:30.750Z,4.96
2023-11-24T14:27:33.594Z,4.79
2023-11-24T14:32:36.874Z,4.89
2023-11-24T14:37:38.868Z,4.76
2023-11-24T14:42:41.609Z,4.60
2023-11-24T14:47:45.480Z,4.57
2023-11-24T14:52:47.519Z,4.36
2023-11-24T14:57:49.577Z,4.38
2023-11-24T15:02:53.108Z,4.47
2023-11-24T15:07:55.191Z,4.53
2023-11-24T15:12:56.976Z,4.44
2023-11-24T15:18:00.356Z,4.52
2023-11-24T15:23:02.661Z,4.53
2023-11-24T15:28:05.945Z,4.44
2023-11-24T15:33:09.092Z,4.42
2023-11-24T15:38:10.886Z,4.37
2023-11-24T15:43:12.747Z,4.42
2023-11-24T15:48:16.100Z,4.46
2023-11-24T15:53:17.943Z,4.43
2023-11-24T15:58:20.431Z,4.44
2023-11-24T16:03:24.486Z,4.46
2023-11-24T16:08:26.237Z,4.34
2023-11-24T16:13:28.705Z,4.40
2023-11-24T16:18:35.451Z,4.17
2023-11-24T16:23:38.166Z,4.07
2023-11-24T16:28:41.170Z,3.85
2023-11-24T16:33:44.337Z,3.75
2023-11-24T16:38:46.375Z,3.55
2023-11-24T16:43:49.233Z,3.67
2023-11-24T16:48:52.339Z,3.70
2023-11-24T16:53:54.486Z,3.64
2023-11-24T16:58:56.272Z,3.66
2023-11-24T17:03:59.521Z,3.77
2023-11-24T17:09:01.335Z,3.82
2023-11-24T17:14:03.465Z,3.79
2023-11-24T17:19:07.376Z,3.70
2023-11-24T17:24:09.929Z,3.73
2023-11-24T17:29:11.935Z,3.67
2023-11-24T17:34:15.458Z,3.65
2023-11-24T17:39:18.015Z,3.65
2023-11-24T17:44:19.895Z,3.63
2023-11-24T17:49:23.408Z,3.65
2023-11-24T17:54:25.591Z,3.63
2023-11-24T17:59:27.670Z,3.56
2023-11-24T18:04:31.392Z,3.50
2023-11-24T18:09:33.663Z,3.58
2023-11-24T18:14:35.871Z,3.66
2023-11-24T18:19:39.487Z,3.63
2023-11-24T18:24:41.270Z,3.66
2023-11-24T18:29:43.729Z,3.50
2023-11-24T18:34:46.942Z,3.62
2023-11-24T18:39:48.683Z,3.58
2023-11-24T18:44:50.834Z,3.63
2023-11-24T18:49:54.025Z,3.60
2023-11-24T18:54:56.016Z,3.54
2023-11-24T18:59:58.324Z,3.64
2023-11-24T19:05:02.031Z,3.59
2023-11-24T19:10:04.698Z,3.56
2023-11-24T19:15:09.590Z,3.51
2023-11-24T19:20:13.370Z,3.29
2023-11-24T19:25:15.425Z,3.30
2023-11-24T19:30:17.639Z,3.22
2023-11-24T19:35:21.034Z,3.32
2023-11-24T19:40:23.260Z,3.28
2023-11-24T19:45:25.258Z,3.26
2023-11-24T19:50:28.582Z,3.35
2023-11-24T19:55:30.912Z,3.27
2023-11-24T20:00:32.827Z,3.21
2023-11-24T20:05:36.402Z,3.10
2023-11-24T20:10:38.767Z,2.92
2023-11-24T20:15:40.661Z,2.62
2023-11-24T20:20:44.493Z,2.44
2023-11-24T20:25:46.782Z,2.29
2023-11-24T20:30:49.917Z,2.13
2023-11-24T20:35:53.523Z,2.03
2023-11-24T20:40:58.361Z,2.13
2023-11-24T20:46:00.714Z,1.83
2023-11-24T20:51:04.366Z,1.73
2023-11-24T20:56:07.109Z,1.48
2023-11-24T21:01:09.376Z,1.38
2023-11-24T21:06:12.588Z,1.02
2023-11-24T21:11:14.461Z,1.21
2023-11-24T21:16:16.333Z,0.91
2023-11-24T21:21:20.053Z,1.06
2023-11-24T21:26:22.356Z,0.85
2023-11-24T21:31:24.598Z,1.03
2023-11-24T21:36:28.001Z,0.83
2023-11-24T21:41:30.383Z,0.78
2023-11-24T21:46:32.832Z,0.78
2023-11-24T21:51:39.527Z,1.12
2023-11-24T21:56:41.504Z,1.12
2023-11-24T22:01:43.799Z,1.07
2023-11-24T22:06:47.133Z,1.13
2023-11-24T22:11:49.005Z,1.05
2023-11-24T22:16:51.641Z,0.78
2023-11-24T22:21:54.864Z,0.73
2023-11-24T22:26:56.731Z,0.78
2023-11-24T22:31:59.379Z,0.94
2023-11-24T22:37:02.994Z,0.95
2023-11-24T22:42:05.369Z,1.11
2023-11-24T22:47:07.865Z,0.96
2023-11-24T22:52:11.530Z,0.99
2023-11-24T22:57:13.408Z,0.89
2023-11-24T23:02:15.242Z,0.65
2023-11-24T23:07:18.937Z,0.52
2023-11-24T23:12:21.330Z,0.57
2023-11-24T23:17:23.098Z,0.51
2023-11-24T23:22:34.647Z,0.71
2023-11-24T23:27:39.910Z,0.47
2023-11-24T23:32:42.202Z,0.42
2023-11-24T23:37:45.398Z,0.36
2023-11-24T23:42:47.474Z,0.30
2023-11-24T23:47:50.060Z,0.30
2023-11-24T23:52:53.749Z,0.36
2023-11-24T23:57:56.336Z,0.45
